aviador You're here:

KFCI Decoded Metar

in
Report Time2018-06-17 20:56:00
UTC Time2018-06-17 21:36:57
Flight Rules vfr VFR
Wind290° at 07 kt
W.Decomp.*RWY 33: 5.4 kt HW 4.5 kt LCW
W.Rank290° ranks 24
Current wind is above 290° avg. (6.7)
Visibility9999 m
Phenomena:N/A
Clouds:N/A
Expected CloudBase > 3,200 ft AGL from Temp-Dew spread
CeilingNone
Temp30°C
Dew Point22°C (62% RH)
Heat Index33.2°C
QNH1018 hPa
Raw Report
METAR KFCI 172056Z AUTO 29007KT 10SM CLR 30/22 A3005 RMK AO2 SLP189
T03000217 58011 $=

Extra information for KFCI:More info

Social comments